sensor_id;sensor_type;location;lat;lon;timestamp;P1;durP1;ratioP1;P2;durP2;ratioP2
35907;SDS011;22003;50.320;8.054;2024-03-23T00:55:19;74.85;;;34.17;;
35907;SDS011;22003;50.320;8.054;2024-03-23T00:57:44;71.53;;;32.33;;
35907;SDS011;22003;50.320;8.054;2024-03-23T01:00:10;71.00;;;31.85;;
35907;SDS011;22003;50.320;8.054;2024-03-23T01:02:36;73.53;;;33.22;;
35907;SDS011;22003;50.320;8.054;2024-03-23T01:05:01;44.20;;;20.98;;
35907;SDS011;22003;50.320;8.054;2024-03-23T01:07:26;37.25;;;19.15;;
35907;SDS011;22003;50.320;8.054;2024-03-23T01:09:52;42.42;;;20.85;;
35907;SDS011;22003;50.320;8.054;2024-03-23T01:12:18;43.88;;;22.52;;
35907;SDS011;22003;50.320;8.054;2024-03-23T01:14:43;45.05;;;22.60;;
35907;SDS011;22003;50.320;8.054;2024-03-23T01:17:08;55.80;;;24.48;;
35907;SDS011;22003;50.320;8.054;2024-03-23T01:19:34;52.08;;;24.27;;
35907;SDS011;22003;50.320;8.054;2024-03-23T01:21:59;51.20;;;24.58;;
35907;SDS011;22003;50.320;8.054;2024-03-23T01:24:25;47.67;;;23.75;;
35907;SDS011;22003;50.320;8.054;2024-03-23T01:26:50;43.72;;;21.20;;
35907;SDS011;22003;50.320;8.054;2024-03-23T01:29:16;46.42;;;22.30;;
35907;SDS011;22003;50.320;8.054;2024-03-23T01:31:41;40.58;;;20.80;;
35907;SDS011;22003;50.320;8.054;2024-03-23T01:34:06;41.53;;;20.30;;
35907;SDS011;22003;50.320;8.054;2024-03-23T01:36:32;42.38;;;21.90;;
35907;SDS011;22003;50.320;8.054;2024-03-23T01:38:58;42.70;;;21.42;;
35907;SDS011;22003;50.320;8.054;2024-03-23T01:41:24;38.53;;;20.48;;
35907;SDS011;22003;50.320;8.054;2024-03-23T01:43:49;39.20;;;20.48;;
35907;SDS011;22003;50.320;8.054;2024-03-23T01:46:15;45.63;;;22.92;;
35907;SDS011;22003;50.320;8.054;2024-03-23T01:48:41;40.78;;;20.67;;
35907;SDS011;22003;50.320;8.054;2024-03-23T01:51:07;40.92;;;21.58;;
35907;SDS011;22003;50.320;8.054;2024-03-23T01:53:32;46.42;;;22.17;;
35907;SDS011;22003;50.320;8.054;2024-03-23T01:55:58;42.75;;;20.70;;
35907;SDS011;22003;50.320;8.054;2024-03-23T01:58:23;40.28;;;19.48;;
35907;SDS011;22003;50.320;8.054;2024-03-23T02:00:49;45.03;;;21.48;;
35907;SDS011;22003;50.320;8.054;2024-03-23T02:03:24;44.88;;;21.40;;
35907;SDS011;22003;50.320;8.054;2024-03-23T02:05:50;46.15;;;23.08;;
35907;SDS011;22003;50.320;8.054;2024-03-23T02:08:17;37.25;;;19.50;;
35907;SDS011;22003;50.320;8.054;2024-03-23T02:10:43;44.00;;;21.83;;
35907;SDS011;22003;50.320;8.054;2024-03-23T02:13:09;53.92;;;24.63;;
35907;SDS011;22003;50.320;8.054;2024-03-23T02:15:34;53.22;;;24.10;;
35907;SDS011;22003;50.320;8.054;2024-03-23T02:17:59;52.45;;;25.83;;
35907;SDS011;22003;50.320;8.054;2024-03-23T02:20:25;50.92;;;24.90;;
35907;SDS011;22003;50.320;8.054;2024-03-23T02:22:51;53.70;;;25.67;;
35907;SDS011;22003;50.320;8.054;2024-03-23T02:27:43;45.30;;;22.10;;
35907;SDS011;22003;50.320;8.054;2024-03-23T02:30:08;46.63;;;21.73;;
35907;SDS011;22003;50.320;8.054;2024-03-23T02:32:34;40.10;;;19.27;;
35907;SDS011;22003;50.320;8.054;2024-03-23T02:34:59;43.58;;;20.55;;
35907;SDS011;22003;50.320;8.054;2024-03-23T02:37:25;44.42;;;22.48;;
35907;SDS011;22003;50.320;8.054;2024-03-23T02:39:50;44.55;;;22.35;;
35907;SDS011;22003;50.320;8.054;2024-03-23T02:42:15;43.35;;;22.13;;
35907;SDS011;22003;50.320;8.054;2024-03-23T02:44:42;43.92;;;21.42;;
35907;SDS011;22003;50.320;8.054;2024-03-23T02:47:08;54.15;;;25.90;;
35907;SDS011;22003;50.320;8.054;2024-03-23T02:49:33;47.92;;;22.98;;
35907;SDS011;22003;50.320;8.054;2024-03-23T02:51:58;24.13;;;12.43;;
35907;SDS011;22003;50.320;8.054;2024-03-23T02:54:24;25.17;;;12.93;;
35907;SDS011;22003;50.320;8.054;2024-03-23T02:56:49;27.25;;;11.30;;
35907;SDS011;22003;50.320;8.054;2024-03-23T02:59:14;11.93;;;5.40;;
35907;SDS011;22003;50.320;8.054;2024-03-23T03:01:40;13.25;;;6.32;;
35907;SDS011;22003;50.320;8.054;2024-03-23T03:04:05;5.40;;;3.05;;
35907;SDS011;22003;50.320;8.054;2024-03-23T03:06:31;9.70;;;4.50;;
35907;SDS011;22003;50.320;8.054;2024-03-23T03:08:56;4.80;;;2.50;;
35907;SDS011;22003;50.320;8.054;2024-03-23T03:11:22;5.15;;;2.13;;
35907;SDS011;22003;50.320;8.054;2024-03-23T03:13:47;2.22;;;1.55;;
35907;SDS011;22003;50.320;8.054;2024-03-23T03:16:12;2.15;;;1.05;;
35907;SDS011;22003;50.320;8.054;2024-03-23T03:18:38;2.15;;;1.10;;
35907;SDS011;22003;50.320;8.054;2024-03-23T03:21:05;2.08;;;1.25;;
35907;SDS011;22003;50.320;8.054;2024-03-23T03:23:33;2.28;;;1.27;;
35907;SDS011;22003;50.320;8.054;2024-03-23T03:25:59;3.03;;;1.58;;
35907;SDS011;22003;50.320;8.054;2024-03-23T03:28:24;2.45;;;1.63;;
35907;SDS011;22003;50.320;8.054;2024-03-23T03:30:51;4.13;;;1.75;;
35907;SDS011;22003;50.320;8.054;2024-03-23T03:33:16;3.85;;;2.05;;
35907;SDS011;22003;50.320;8.054;2024-03-23T03:35:42;4.35;;;1.85;;
35907;SDS011;22003;50.320;8.054;2024-03-23T03:38:08;8.35;;;1.98;;
35907;SDS011;22003;50.320;8.054;2024-03-23T03:40:33;3.28;;;1.73;;
35907;SDS011;22003;50.320;8.054;2024-03-23T03:42:59;2.30;;;1.40;;
35907;SDS011;22003;50.320;8.054;2024-03-23T03:45:24;3.40;;;1.73;;
35907;SDS011;22003;50.320;8.054;2024-03-23T03:47:49;3.70;;;1.35;;
35907;SDS011;22003;50.320;8.054;2024-03-23T03:50:15;2.55;;;1.70;;
35907;SDS011;22003;50.320;8.054;2024-03-23T03:52:40;2.63;;;1.40;;
35907;SDS011;22003;50.320;8.054;2024-03-23T03:55:12;3.00;;;1.67;;
35907;SDS011;22003;50.320;8.054;2024-03-23T03:57:38;3.95;;;2.22;;
35907;SDS011;22003;50.320;8.054;2024-03-23T04:00:04;4.78;;;2.28;;
35907;SDS011;22003;50.320;8.054;2024-03-23T04:02:29;3.20;;;2.38;;
35907;SDS011;22003;50.320;8.054;2024-03-23T04:04:55;6.38;;;2.45;;
35907;SDS011;22003;50.320;8.054;2024-03-23T04:07:20;4.53;;;2.50;;
35907;SDS011;22003;50.320;8.054;2024-03-23T04:09:47;3.08;;;2.20;;
35907;SDS011;22003;50.320;8.054;2024-03-23T04:12:13;5.32;;;2.65;;
35907;SDS011;22003;50.320;8.054;2024-03-23T04:14:38;4.43;;;2.85;;
35907;SDS011;22003;50.320;8.054;2024-03-23T04:17:03;4.35;;;3.00;;
35907;SDS011;22003;50.320;8.054;2024-03-23T04:19:29;4.60;;;3.00;;
35907;SDS011;22003;50.320;8.054;2024-03-23T04:21:54;5.35;;;2.78;;
35907;SDS011;22003;50.320;8.054;2024-03-23T04:24:19;4.35;;;3.13;;
35907;SDS011;22003;50.320;8.054;2024-03-23T04:26:47;4.25;;;3.10;;
35907;SDS011;22003;50.320;8.054;2024-03-23T04:29:12;7.78;;;3.47;;
35907;SDS011;22003;50.320;8.054;2024-03-23T04:31:38;6.55;;;2.95;;
35907;SDS011;22003;50.320;8.054;2024-03-23T04:34:03;5.28;;;2.75;;
35907;SDS011;22003;50.320;8.054;2024-03-23T04:36:29;5.18;;;2.85;;
35907;SDS011;22003;50.320;8.054;2024-03-23T04:38:54;6.28;;;3.10;;
35907;SDS011;22003;50.320;8.054;2024-03-23T04:41:20;4.80;;;2.88;;
35907;SDS011;22003;50.320;8.054;2024-03-23T04:43:45;5.32;;;3.00;;
35907;SDS011;22003;50.320;8.054;2024-03-23T04:46:11;4.68;;;2.75;;
35907;SDS011;22003;50.320;8.054;2024-03-23T04:48:36;4.22;;;2.72;;
35907;SDS011;22003;50.320;8.054;2024-03-23T04:51:01;5.05;;;2.72;;
35907;SDS011;22003;50.320;8.054;2024-03-23T04:53:27;6.10;;;2.97;;
35907;SDS011;22003;50.320;8.054;2024-03-23T04:55:58;3.40;;;2.20;;
35907;SDS011;22003;50.320;8.054;2024-03-23T04:58:24;3.00;;;1.70;;
35907;SDS011;22003;50.320;8.054;2024-03-23T05:00:56;5.13;;;2.20;;
35907;SDS011;22003;50.320;8.054;2024-03-23T05:03:22;4.20;;;2.00;;
35907;SDS011;22003;50.320;8.054;2024-03-23T05:05:48;2.50;;;1.77;;
35907;SDS011;22003;50.320;8.054;2024-03-23T05:08:14;3.83;;;1.48;;
35907;SDS011;22003;50.320;8.054;2024-03-23T05:10:41;2.20;;;1.50;;
35907;SDS011;22003;50.320;8.054;2024-03-23T05:13:09;2.50;;;1.50;;
35907;SDS011;22003;50.320;8.054;2024-03-23T05:15:35;3.33;;;1.67;;
35907;SDS011;22003;50.320;8.054;2024-03-23T05:18:00;3.55;;;1.42;;
35907;SDS011;22003;50.320;8.054;2024-03-23T05:20:26;2.50;;;1.30;;
35907;SDS011;22003;50.320;8.054;2024-03-23T05:22:51;1.50;;;1.20;;
35907;SDS011;22003;50.320;8.054;2024-03-23T05:25:16;1.63;;;1.27;;
35907;SDS011;22003;50.320;8.054;2024-03-23T05:27:42;1.65;;;1.08;;
35907;SDS011;22003;50.320;8.054;2024-03-23T05:30:07;2.20;;;1.20;;
35907;SDS011;22003;50.320;8.054;2024-03-23T05:32:34;2.28;;;1.30;;
35907;SDS011;22003;50.320;8.054;2024-03-23T05:34:59;1.58;;;1.00;;
35907;SDS011;22003;50.320;8.054;2024-03-23T05:37:25;1.30;;;1.15;;
35907;SDS011;22003;50.320;8.054;2024-03-23T05:39:50;4.00;;;1.33;;
35907;SDS011;22003;50.320;8.054;2024-03-23T05:42:16;1.77;;;0.98;;
35907;SDS011;22003;50.320;8.054;2024-03-23T05:44:45;3.25;;;1.20;;
35907;SDS011;22003;50.320;8.054;2024-03-23T05:47:11;3.85;;;1.17;;
35907;SDS011;22003;50.320;8.054;2024-03-23T05:49:41;6.75;;;1.52;;
35907;SDS011;22003;50.320;8.054;2024-03-23T05:52:07;3.42;;;1.63;;
35907;SDS011;22003;50.320;8.054;2024-03-23T05:54:33;4.28;;;1.67;;
35907;SDS011;22003;50.320;8.054;2024-03-23T05:56:58;6.38;;;1.92;;
35907;SDS011;22003;50.320;8.054;2024-03-23T05:59:24;4.97;;;1.80;;
35907;SDS011;22003;50.320;8.054;2024-03-23T06:01:50;5.40;;;1.77;;
35907;SDS011;22003;50.320;8.054;2024-03-23T06:04:15;5.60;;;1.73;;
35907;SDS011;22003;50.320;8.054;2024-03-23T06:06:40;5.75;;;1.80;;
35907;SDS011;22003;50.320;8.054;2024-03-23T06:09:06;4.55;;;1.80;;
35907;SDS011;22003;50.320;8.054;2024-03-23T06:11:31;8.75;;;2.55;;
35907;SDS011;22003;50.320;8.054;2024-03-23T06:13:56;10.57;;;2.55;;
35907;SDS011;22003;50.320;8.054;2024-03-23T06:16:22;7.00;;;2.65;;
35907;SDS011;22003;50.320;8.054;2024-03-23T06:18:48;5.22;;;2.60;;
35907;SDS011;22003;50.320;8.054;2024-03-23T06:21:14;6.03;;;2.47;;
35907;SDS011;22003;50.320;8.054;2024-03-23T06:23:40;6.43;;;2.58;;
35907;SDS011;22003;50.320;8.054;2024-03-23T06:26:06;7.95;;;2.17;;
35907;SDS011;22003;50.320;8.054;2024-03-23T06:28:31;8.93;;;2.45;;
35907;SDS011;22003;50.320;8.054;2024-03-23T06:30:57;13.20;;;2.92;;
35907;SDS011;22003;50.320;8.054;2024-03-23T06:33:22;10.15;;;2.53;;
35907;SDS011;22003;50.320;8.054;2024-03-23T06:35:51;8.40;;;2.60;;
35907;SDS011;22003;50.320;8.054;2024-03-23T06:38:17;11.25;;;2.53;;
35907;SDS011;22003;50.320;8.054;2024-03-23T06:40:43;8.88;;;2.85;;
35907;SDS011;22003;50.320;8.054;2024-03-23T06:43:12;11.57;;;3.40;;
35907;SDS011;22003;50.320;8.054;2024-03-23T06:45:38;8.75;;;3.80;;
35907;SDS011;22003;50.320;8.054;2024-03-23T06:48:04;10.88;;;4.18;;
35907;SDS011;22003;50.320;8.054;2024-03-23T06:50:29;10.93;;;3.78;;
35907;SDS011;22003;50.320;8.054;2024-03-23T06:52:54;8.23;;;3.90;;
35907;SDS011;22003;50.320;8.054;2024-03-23T06:55:20;11.18;;;5.60;;
35907;SDS011;22003;50.320;8.054;2024-03-23T06:57:45;11.38;;;4.40;;
35907;SDS011;22003;50.320;8.054;2024-03-23T07:00:11;12.48;;;4.53;;
35907;SDS011;22003;50.320;8.054;2024-03-23T07:02:38;10.32;;;4.85;;
35907;SDS011;22003;50.320;8.054;2024-03-23T07:05:03;13.70;;;5.50;;
35907;SDS011;22003;50.320;8.054;2024-03-23T07:07:29;12.85;;;5.22;;
35907;SDS011;22003;50.320;8.054;2024-03-23T07:09:55;9.60;;;5.25;;
35907;SDS011;22003;50.320;8.054;2024-03-23T07:12:20;11.55;;;5.78;;
35907;SDS011;22003;50.320;8.054;2024-03-23T07:14:46;13.75;;;5.90;;
35907;SDS011;22003;50.320;8.054;2024-03-23T07:17:11;11.20;;;6.65;;
35907;SDS011;22003;50.320;8.054;2024-03-23T07:19:36;12.02;;;6.55;;
35907;SDS011;22003;50.320;8.054;2024-03-23T07:22:02;14.63;;;6.55;;
35907;SDS011;22003;50.320;8.054;2024-03-23T07:24:27;10.80;;;6.28;;
35907;SDS011;22003;50.320;8.054;2024-03-23T07:26:52;12.02;;;6.45;;
35907;SDS011;22003;50.320;8.054;2024-03-23T07:29:19;9.75;;;6.65;;
35907;SDS011;22003;50.320;8.054;2024-03-23T07:31:44;12.93;;;6.07;;
35907;SDS011;22003;50.320;8.054;2024-03-23T07:34:10;17.17;;;6.50;;
35907;SDS011;22003;50.320;8.054;2024-03-23T07:36:35;12.18;;;6.25;;
35907;SDS011;22003;50.320;8.054;2024-03-23T07:39:00;11.38;;;5.70;;
35907;SDS011;22003;50.320;8.054;2024-03-23T07:41:26;19.50;;;6.63;;
35907;SDS011;22003;50.320;8.054;2024-03-23T07:43:53;11.25;;;7.13;;
35907;SDS011;22003;50.320;8.054;2024-03-23T07:46:19;12.07;;;5.93;;
35907;SDS011;22003;50.320;8.054;2024-03-23T07:48:45;15.60;;;6.72;;
35907;SDS011;22003;50.320;8.054;2024-03-23T07:51:18;12.45;;;5.63;;
35907;SDS011;22003;50.320;8.054;2024-03-23T07:53:45;11.20;;;4.68;;
35907;SDS011;22003;50.320;8.054;2024-03-23T07:56:11;9.85;;;5.28;;
35907;SDS011;22003;50.320;8.054;2024-03-23T07:58:37;13.32;;;5.22;;
35907;SDS011;22003;50.320;8.054;2024-03-23T08:01:06;20.52;;;5.82;;
35907;SDS011;22003;50.320;8.054;2024-03-23T08:03:40;11.75;;;4.75;;
35907;SDS011;22003;50.320;8.054;2024-03-23T08:08:33;17.35;;;5.07;;
35907;SDS011;22003;50.320;8.054;2024-03-23T08:10:59;11.10;;;5.05;;
35907;SDS011;22003;50.320;8.054;2024-03-23T08:13:24;9.68;;;4.20;;
35907;SDS011;22003;50.320;8.054;2024-03-23T08:15:50;15.68;;;4.50;;
35907;SDS011;22003;50.320;8.054;2024-03-23T08:18:15;11.77;;;4.93;;
35907;SDS011;22003;50.320;8.054;2024-03-23T08:20:40;14.25;;;4.90;;
35907;SDS011;22003;50.320;8.054;2024-03-23T08:23:06;16.98;;;5.18;;
35907;SDS011;22003;50.320;8.054;2024-03-23T08:25:32;19.88;;;5.72;;
35907;SDS011;22003;50.320;8.054;2024-03-23T08:27:58;16.08;;;5.45;;
35907;SDS011;22003;50.320;8.054;2024-03-23T08:30:24;20.23;;;6.40;;
35907;SDS011;22003;50.320;8.054;2024-03-23T08:32:49;19.60;;;6.95;;
35907;SDS011;22003;50.320;8.054;2024-03-23T08:35:14;18.27;;;5.88;;
35907;SDS011;22003;50.320;8.054;2024-03-23T08:37:40;20.52;;;6.63;;
35907;SDS011;22003;50.320;8.054;2024-03-23T08:40:05;12.60;;;5.93;;
35907;SDS011;22003;50.320;8.054;2024-03-23T08:42:31;17.05;;;6.25;;
35907;SDS011;22003;50.320;8.054;2024-03-23T08:44:57;16.77;;;5.60;;
35907;SDS011;22003;50.320;8.054;2024-03-23T08:47:22;14.35;;;6.00;;
35907;SDS011;22003;50.320;8.054;2024-03-23T08:49:47;15.32;;;5.90;;
35907;SDS011;22003;50.320;8.054;2024-03-23T08:52:13;13.15;;;5.47;;
35907;SDS011;22003;50.320;8.054;2024-03-23T08:54:38;10.60;;;5.32;;
35907;SDS011;22003;50.320;8.054;2024-03-23T08:57:03;12.60;;;4.63;;
35907;SDS011;22003;50.320;8.054;2024-03-23T08:59:29;16.90;;;5.15;;
35907;SDS011;22003;50.320;8.054;2024-03-23T09:01:55;13.45;;;4.95;;
35907;SDS011;22003;50.320;8.054;2024-03-23T09:04:21;12.77;;;5.60;;
35907;SDS011;22003;50.320;8.054;2024-03-23T09:06:46;11.68;;;4.55;;
35907;SDS011;22003;50.320;8.054;2024-03-23T09:09:11;15.77;;;4.78;;
35907;SDS011;22003;50.320;8.054;2024-03-23T09:11:37;14.70;;;4.32;;
35907;SDS011;22003;50.320;8.054;2024-03-23T09:14:02;11.55;;;4.40;;
35907;SDS011;22003;50.320;8.054;2024-03-23T09:16:28;11.75;;;3.95;;
35907;SDS011;22003;50.320;8.054;2024-03-23T09:18:54;14.45;;;3.97;;
35907;SDS011;22003;50.320;8.054;2024-03-23T09:21:19;13.40;;;3.25;;
35907;SDS011;22003;50.320;8.054;2024-03-23T09:23:44;16.67;;;3.75;;
35907;SDS011;22003;50.320;8.054;2024-03-23T09:26:10;9.98;;;3.30;;
35907;SDS011;22003;50.320;8.054;2024-03-23T09:28:35;13.63;;;3.42;;
35907;SDS011;22003;50.320;8.054;2024-03-23T09:31:04;16.02;;;3.60;;
35907;SDS011;22003;50.320;8.054;2024-03-23T09:33:29;11.77;;;2.92;;
35907;SDS011;22003;50.320;8.054;2024-03-23T09:35:55;13.30;;;3.80;;
35907;SDS011;22003;50.320;8.054;2024-03-23T09:38:21;8.27;;;2.80;;
35907;SDS011;22003;50.320;8.054;2024-03-23T09:40:47;15.40;;;3.25;;
35907;SDS011;22003;50.320;8.054;2024-03-23T09:43:14;10.82;;;3.33;;
35907;SDS011;22003;50.320;8.054;2024-03-23T09:45:40;7.50;;;2.65;;
35907;SDS011;22003;50.320;8.054;2024-03-23T09:48:09;9.35;;;2.60;;
35907;SDS011;22003;50.320;8.054;2024-03-23T09:53:09;9.82;;;2.03;;
35907;SDS011;22003;50.320;8.054;2024-03-23T09:55:39;9.65;;;2.10;;
35907;SDS011;22003;50.320;8.054;2024-03-23T09:58:06;9.60;;;2.35;;
35907;SDS011;22003;50.320;8.054;2024-03-23T10:00:35;6.30;;;1.45;;
35907;SDS011;22003;50.320;8.054;2024-03-23T10:03:00;8.57;;;1.48;;
35907;SDS011;22003;50.320;8.054;2024-03-23T10:05:31;8.95;;;1.48;;
35907;SDS011;22003;50.320;8.054;2024-03-23T10:08:00;5.38;;;1.52;;
35907;SDS011;22003;50.320;8.054;2024-03-23T10:10:42;8.13;;;1.60;;
35907;SDS011;22003;50.320;8.054;2024-03-23T10:13:08;4.05;;;1.27;;
35907;SDS011;22003;50.320;8.054;2024-03-23T10:15:34;9.50;;;1.80;;
35907;SDS011;22003;50.320;8.054;2024-03-23T10:18:17;11.35;;;1.85;;
35907;SDS011;22003;50.320;8.054;2024-03-23T10:20:42;4.63;;;1.27;;
35907;SDS011;22003;50.320;8.054;2024-03-23T10:23:15;12.95;;;2.10;;
35907;SDS011;22003;50.320;8.054;2024-03-23T10:25:41;6.85;;;2.05;;
35907;SDS011;22003;50.320;8.054;2024-03-23T10:28:07;6.20;;;1.88;;
35907;SDS011;22003;50.320;8.054;2024-03-23T10:30:32;3.97;;;1.70;;
35907;SDS011;22003;50.320;8.054;2024-03-23T10:33:07;8.52;;;2.30;;
35907;SDS011;22003;50.320;8.054;2024-03-23T10:35:33;8.07;;;2.40;;
35907;SDS011;22003;50.320;8.054;2024-03-23T10:37:59;10.93;;;2.78;;
35907;SDS011;22003;50.320;8.054;2024-03-23T10:40:24;7.93;;;2.28;;
35907;SDS011;22003;50.320;8.054;2024-03-23T10:42:50;4.53;;;2.10;;
35907;SDS011;22003;50.320;8.054;2024-03-23T10:45:17;11.10;;;3.30;;
35907;SDS011;22003;50.320;8.054;2024-03-23T10:47:42;12.80;;;4.35;;
35907;SDS011;22003;50.320;8.054;2024-03-23T10:50:08;7.78;;;2.65;;
35907;SDS011;22003;50.320;8.054;2024-03-23T10:52:34;10.63;;;3.15;;
35907;SDS011;22003;50.320;8.054;2024-03-23T10:55:00;13.20;;;3.97;;
35907;SDS011;22003;50.320;8.054;2024-03-23T10:57:32;11.57;;;3.85;;
35907;SDS011;22003;50.320;8.054;2024-03-23T11:00:04;9.13;;;3.50;;
35907;SDS011;22003;50.320;8.054;2024-03-23T11:02:30;6.90;;;2.50;;
35907;SDS011;22003;50.320;8.054;2024-03-23T11:04:56;5.00;;;2.78;;
35907;SDS011;22003;50.320;8.054;2024-03-23T11:09:50;10.38;;;3.03;;
35907;SDS011;22003;50.320;8.054;2024-03-23T11:14:48;9.95;;;3.33;;
35907;SDS011;22003;50.320;8.054;2024-03-23T11:17:21;10.80;;;2.75;;
35907;SDS011;22003;50.320;8.054;2024-03-23T11:19:54;11.88;;;3.90;;
35907;SDS011;22003;50.320;8.054;2024-03-23T11:25:02;6.78;;;3.53;;
35907;SDS011;22003;50.320;8.054;2024-03-23T11:27:54;11.07;;;3.17;;
35907;SDS011;22003;50.320;8.054;2024-03-23T11:30:22;8.93;;;3.22;;
35907;SDS011;22003;50.320;8.054;2024-03-23T11:32:49;11.05;;;3.10;;
35907;SDS011;22003;50.320;8.054;2024-03-23T11:35:34;14.18;;;4.22;;
35907;SDS011;22003;50.320;8.054;2024-03-23T11:38:06;14.38;;;4.38;;
35907;SDS011;22003;50.320;8.054;2024-03-23T11:40:33;12.57;;;4.13;;
35907;SDS011;22003;50.320;8.054;2024-03-23T11:43:00;9.77;;;3.30;;
35907;SDS011;22003;50.320;8.054;2024-03-23T11:45:27;11.23;;;3.83;;
35907;SDS011;22003;50.320;8.054;2024-03-23T11:48:04;8.98;;;3.55;;
35907;SDS011;22003;50.320;8.054;2024-03-23T11:50:37;7.05;;;2.83;;
35907;SDS011;22003;50.320;8.054;2024-03-23T11:53:09;7.57;;;3.67;;
35907;SDS011;22003;50.320;8.054;2024-03-23T11:55:42;7.85;;;2.78;;
35907;SDS011;22003;50.320;8.054;2024-03-23T11:58:37;16.17;;;3.15;;
35907;SDS011;22003;50.320;8.054;2024-03-23T12:01:03;10.13;;;2.90;;
35907;SDS011;22003;50.320;8.054;2024-03-23T12:03:30;8.18;;;3.08;;
35907;SDS011;22003;50.320;8.054;2024-03-23T12:05:58;6.72;;;1.95;;
35907;SDS011;22003;50.320;8.054;2024-03-23T12:10:54;7.82;;;2.30;;
35907;SDS011;22003;50.320;8.054;2024-03-23T12:13:29;6.97;;;2.22;;
35907;SDS011;22003;50.320;8.054;2024-03-23T12:15:54;4.95;;;1.48;;
35907;SDS011;22003;50.320;8.054;2024-03-23T12:18:23;4.78;;;1.83;;
35907;SDS011;22003;50.320;8.054;2024-03-23T12:20:49;3.50;;;1.45;;
35907;SDS011;22003;50.320;8.054;2024-03-23T12:23:14;4.00;;;1.50;;
35907;SDS011;22003;50.320;8.054;2024-03-23T12:25:40;8.95;;;2.50;;
35907;SDS011;22003;50.320;8.054;2024-03-23T12:28:06;9.10;;;2.22;;
35907;SDS011;22003;50.320;8.054;2024-03-23T12:30:32;5.30;;;2.85;;
35907;SDS011;22003;50.320;8.054;2024-03-23T12:33:03;6.03;;;2.47;;
35907;SDS011;22003;50.320;8.054;2024-03-23T12:35:29;6.57;;;2.13;;
35907;SDS011;22003;50.320;8.054;2024-03-23T12:37:54;5.55;;;1.52;;
35907;SDS011;22003;50.320;8.054;2024-03-23T12:40:20;3.08;;;1.23;;
35907;SDS011;22003;50.320;8.054;2024-03-23T12:42:45;1.40;;;0.90;;
35907;SDS011;22003;50.320;8.054;2024-03-23T12:45:10;6.82;;;1.75;;
35907;SDS011;22003;50.320;8.054;2024-03-23T12:47:36;3.03;;;1.10;;
35907;SDS011;22003;50.320;8.054;2024-03-23T12:50:01;3.53;;;1.02;;
35907;SDS011;22003;50.320;8.054;2024-03-23T12:52:26;3.83;;;1.42;;
35907;SDS011;22003;50.320;8.054;2024-03-23T12:54:55;3.85;;;1.80;;
35907;SDS011;22003;50.320;8.054;2024-03-23T12:57:22;1.58;;;0.98;;
35907;SDS011;22003;50.320;8.054;2024-03-23T12:59:48;3.15;;;1.75;;
35907;SDS011;22003;50.320;8.054;2024-03-23T13:02:16;2.10;;;1.33;;
35907;SDS011;22003;50.320;8.054;2024-03-23T13:04:45;2.55;;;0.90;;
35907;SDS011;22003;50.320;8.054;2024-03-23T13:07:11;0.83;;;0.77;;
35907;SDS011;22003;50.320;8.054;2024-03-23T13:09:37;1.77;;;1.00;;
35907;SDS011;22003;50.320;8.054;2024-03-23T13:12:02;2.80;;;0.80;;
35907;SDS011;22003;50.320;8.054;2024-03-23T13:14:28;1.45;;;0.60;;
35907;SDS011;22003;50.320;8.054;2024-03-23T13:16:53;2.22;;;0.80;;
35907;SDS011;22003;50.320;8.054;2024-03-23T13:19:18;2.03;;;1.40;;
35907;SDS011;22003;50.320;8.054;2024-03-23T13:21:45;1.27;;;0.70;;
35907;SDS011;22003;50.320;8.054;2024-03-23T13:24:10;3.25;;;1.02;;
35907;SDS011;22003;50.320;8.054;2024-03-23T13:26:35;1.70;;;0.60;;
35907;SDS011;22003;50.320;8.054;2024-03-23T13:29:01;3.55;;;0.90;;
35907;SDS011;22003;50.320;8.054;2024-03-23T13:31:27;3.75;;;1.00;;
35907;SDS011;22003;50.320;8.054;2024-03-23T13:33:52;1.67;;;0.50;;
35907;SDS011;22003;50.320;8.054;2024-03-23T13:36:17;2.58;;;1.10;;
35907;SDS011;22003;50.320;8.054;2024-03-23T13:38:42;2.95;;;0.93;;
35907;SDS011;22003;50.320;8.054;2024-03-23T13:41:08;2.13;;;0.60;;
35907;SDS011;22003;50.320;8.054;2024-03-23T13:43:37;3.25;;;1.05;;
35907;SDS011;22003;50.320;8.054;2024-03-23T13:46:02;2.85;;;0.88;;
35907;SDS011;22003;50.320;8.054;2024-03-23T13:48:28;2.33;;;1.17;;
35907;SDS011;22003;50.320;8.054;2024-03-23T13:50:58;3.08;;;1.08;;
35907;SDS011;22003;50.320;8.054;2024-03-23T13:53:23;2.38;;;1.30;;
35907;SDS011;22003;50.320;8.054;2024-03-23T13:55:48;1.70;;;1.10;;
35907;SDS011;22003;50.320;8.054;2024-03-23T13:58:14;3.97;;;1.85;;
35907;SDS011;22003;50.320;8.054;2024-03-23T14:00:40;2.47;;;0.70;;
35907;SDS011;22003;50.320;8.054;2024-03-23T14:03:07;3.50;;;1.08;;
35907;SDS011;22003;50.320;8.054;2024-03-23T14:05:33;1.15;;;0.73;;
35907;SDS011;22003;50.320;8.054;2024-03-23T14:07:58;3.03;;;0.80;;
35907;SDS011;22003;50.320;8.054;2024-03-23T14:10:23;3.08;;;0.90;;
35907;SDS011;22003;50.320;8.054;2024-03-23T14:12:49;3.17;;;0.80;;
35907;SDS011;22003;50.320;8.054;2024-03-23T14:15:14;0.60;;;0.50;;
35907;SDS011;22003;50.320;8.054;2024-03-23T14:17:39;2.53;;;0.85;;
35907;SDS011;22003;50.320;8.054;2024-03-23T14:20:05;0.93;;;0.50;;
35907;SDS011;22003;50.320;8.054;2024-03-23T14:22:31;6.70;;;2.90;;
35907;SDS011;22003;50.320;8.054;2024-03-23T14:24:57;1.55;;;0.68;;
35907;SDS011;22003;50.320;8.054;2024-03-23T14:27:22;1.85;;;0.73;;
35907;SDS011;22003;50.320;8.054;2024-03-23T14:29:48;3.22;;;0.70;;
35907;SDS011;22003;50.320;8.054;2024-03-23T14:32:13;4.13;;;2.33;;
35907;SDS011;22003;50.320;8.054;2024-03-23T14:34:39;3.40;;;1.10;;
35907;SDS011;22003;50.320;8.054;2024-03-23T14:37:05;1.60;;;0.90;;
35907;SDS011;22003;50.320;8.054;2024-03-23T14:39:31;3.88;;;1.23;;
35907;SDS011;22003;50.320;8.054;2024-03-23T14:41:59;6.90;;;4.10;;
35907;SDS011;22003;50.320;8.054;2024-03-23T14:44:24;2.00;;;1.20;;
35907;SDS011;22003;50.320;8.054;2024-03-23T14:46:49;3.33;;;1.00;;
35907;SDS011;22003;50.320;8.054;2024-03-23T14:49:15;4.93;;;1.92;;
35907;SDS011;22003;50.320;8.054;2024-03-23T14:51:43;4.22;;;1.10;;
35907;SDS011;22003;50.320;8.054;2024-03-23T14:54:08;2.53;;;1.00;;
35907;SDS011;22003;50.320;8.054;2024-03-23T14:56:33;1.17;;;1.08;;
35907;SDS011;22003;50.320;8.054;2024-03-23T14:58:59;3.90;;;1.77;;
35907;SDS011;22003;50.320;8.054;2024-03-23T15:01:25;2.55;;;1.05;;
35907;SDS011;22003;50.320;8.054;2024-03-23T15:03:50;6.28;;;1.27;;
35907;SDS011;22003;50.320;8.054;2024-03-23T15:06:18;9.45;;;3.60;;
35907;SDS011;22003;50.320;8.054;2024-03-23T15:08:43;7.03;;;1.90;;
35907;SDS011;22003;50.320;8.054;2024-03-23T15:11:08;1.70;;;0.88;;
35907;SDS011;22003;50.320;8.054;2024-03-23T15:13:34;7.72;;;2.72;;
35907;SDS011;22003;50.320;8.054;2024-03-23T15:16:00;7.30;;;2.63;;
35907;SDS011;22003;50.320;8.054;2024-03-23T15:18:26;7.95;;;1.95;;
35907;SDS011;22003;50.320;8.054;2024-03-23T15:20:56;7.28;;;2.15;;
35907;SDS011;22003;50.320;8.054;2024-03-23T15:23:22;3.25;;;1.40;;
35907;SDS011;22003;50.320;8.054;2024-03-23T15:25:58;3.90;;;1.60;;
35907;SDS011;22003;50.320;8.054;2024-03-23T15:28:25;2.10;;;1.00;;
35907;SDS011;22003;50.320;8.054;2024-03-23T15:31:07;4.28;;;0.80;;
35907;SDS011;22003;50.320;8.054;2024-03-23T15:33:34;2.22;;;0.60;;
35907;SDS011;22003;50.320;8.054;2024-03-23T15:36:00;2.22;;;0.90;;
35907;SDS011;22003;50.320;8.054;2024-03-23T15:38:26;2.90;;;0.90;;
35907;SDS011;22003;50.320;8.054;2024-03-23T15:40:51;1.45;;;0.80;;
35907;SDS011;22003;50.320;8.054;2024-03-23T15:43:17;5.53;;;1.17;;
35907;SDS011;22003;50.320;8.054;2024-03-23T15:45:42;3.78;;;0.90;;
35907;SDS011;22003;50.320;8.054;2024-03-23T15:48:08;6.18;;;2.00;;